sensor_id;sensor_type;location;lat;lon;timestamp;temperature;humidity
66827;DHT22;53727;45.242;19.796;2022-09-12T00:00:47;435.80;2355.20
66827;DHT22;53727;45.242;19.796;2022-09-12T00:03:13;435.80;2355.20
66827;DHT22;53727;45.242;19.796;2022-09-12T00:10:42;435.80;2355.20
66827;DHT22;53727;45.242;19.796;2022-09-12T00:13:08;435.50;2355.20
66827;DHT22;53727;45.242;19.796;2022-09-12T00:15:42;435.40;2355.20
66827;DHT22;53727;45.242;19.796;2022-09-12T00:18:10;435.40;2355.20
66827;DHT22;53727;45.242;19.796;2022-09-12T00:20:41;435.30;2355.20
66827;DHT22;53727;45.242;19.796;2022-09-12T00:23:07;435.40;2355.20
66827;DHT22;53727;45.242;19.796;2022-09-12T00:25:32;435.20;2355.20
66827;DHT22;53727;45.242;19.796;2022-09-12T00:37:45;435.40;2355.20
66827;DHT22;53727;45.242;19.796;2022-09-12T00:40:11;435.30;2355.20
66827;DHT22;53727;45.242;19.796;2022-09-12T00:55:12;410.50;2355.20
66827;DHT22;53727;45.242;19.796;2022-09-12T00:57:49;410.40;2355.20
66827;DHT22;53727;45.242;19.796;2022-09-12T01:00:19;410.40;2355.20
66827;DHT22;53727;45.242;19.796;2022-09-12T01:02:49;410.20;2355.20
66827;DHT22;53727;45.242;19.796;2022-09-12T01:05:16;410.20;2355.20
66827;DHT22;53727;45.242;19.796;2022-09-12T01:07:43;410.10;2355.20
66827;DHT22;53727;45.242;19.796;2022-09-12T01:10:13;410.10;2355.20
66827;DHT22;53727;45.242;19.796;2022-09-12T01:15:07;410.20;2355.20
66827;DHT22;53727;45.242;19.796;2022-09-12T01:26:41;410.40;2355.20
66827;DHT22;53727;45.242;19.796;2022-09-12T01:31:48;410.30;2355.20
66827;DHT22;53727;45.242;19.796;2022-09-12T01:37:13;410.20;2355.20
66827;DHT22;53727;45.242;19.796;2022-09-12T01:42:40;410.20;2355.20
66827;DHT22;53727;45.242;19.796;2022-09-12T01:45:10;410.10;2355.20
66827;DHT22;53727;45.242;19.796;2022-09-12T01:47:44;410.10;2355.20
66827;DHT22;53727;45.242;19.796;2022-09-12T01:50:26;410.10;2355.20
66827;DHT22;53727;45.242;19.796;2022-09-12T01:53:05;410.10;2355.20
66827;DHT22;53727;45.242;19.796;2022-09-12T01:55:37;410.10;2355.20
66827;DHT22;53727;45.242;19.796;2022-09-12T01:58:16;410.10;2355.20
66827;DHT22;53727;45.242;19.796;2022-09-12T02:00:49;410.00;2355.20
66827;DHT22;53727;45.242;19.796;2022-09-12T02:03:21;410.00;2355.20
66827;DHT22;53727;45.242;19.796;2022-09-12T02:05:56;409.90;2355.20
66827;DHT22;53727;45.242;19.796;2022-09-12T05:48:48;410.40;2355.20
66827;DHT22;53727;45.242;19.796;2022-09-12T05:51:16;410.20;2355.20
66827;DHT22;53727;45.242;19.796;2022-09-12T05:53:47;410.40;2355.20
66827;DHT22;53727;45.242;19.796;2022-09-12T05:56:18;410.50;2355.20
66827;DHT22;53727;45.242;19.796;2022-09-12T05:58:47;435.20;2355.20
66827;DHT22;53727;45.242;19.796;2022-09-12T06:08:34;435.60;2355.20
66827;DHT22;53727;45.242;19.796;2022-09-12T06:11:05;435.50;2355.20
66827;DHT22;53727;45.242;19.796;2022-09-12T06:13:32;435.60;2355.20
66827;DHT22;53727;45.242;19.796;2022-09-12T06:16:11;435.60;2355.20
66827;DHT22;53727;45.242;19.796;2022-09-12T06:33:15;460.90;2380.80
66827;DHT22;53727;45.242;19.796;2022-09-12T06:35:41;436.10;2355.20
66827;DHT22;53727;45.242;19.796;2022-09-12T06:45:26;461.40;2380.80
66827;DHT22;53727;45.242;19.796;2022-09-12T06:47:52;461.30;2380.80
66827;DHT22;53727;45.242;19.796;2022-09-12T06:50:17;461.20;2380.80
66827;DHT22;53727;45.242;19.796;2022-09-12T06:52:43;461.10;2380.80
66827;DHT22;53727;45.242;19.796;2022-09-12T06:55:09;461.20;2380.80
66827;DHT22;53727;45.242;19.796;2022-09-12T06:57:34;461.10;2380.80
66827;DHT22;53727;45.242;19.796;2022-09-12T07:00:06;461.10;2380.80
66827;DHT22;53727;45.242;19.796;2022-09-12T07:02:32;461.30;2380.80
66827;DHT22;53727;45.242;19.796;2022-09-12T07:04:57;461.60;2380.80
66827;DHT22;53727;45.242;19.796;2022-09-12T07:07:23;461.40;2380.80
66827;DHT22;53727;45.242;19.796;2022-09-12T07:09:49;461.70;2380.80
66827;DHT22;53727;45.242;19.796;2022-09-12T07:12:14;486.50;2380.80
66827;DHT22;53727;45.242;19.796;2022-09-12T07:14:40;461.70;2380.80
66827;DHT22;53727;45.242;19.796;2022-09-12T07:17:06;461.70;2380.80
66827;DHT22;53727;45.242;19.796;2022-09-12T07:19:33;486.40;2380.80
66827;DHT22;53727;45.242;19.796;2022-09-12T07:21:59;486.60;2380.80
66827;DHT22;53727;45.242;19.796;2022-09-12T07:24:25;486.70;2380.80
66827;DHT22;53727;45.242;19.796;2022-09-12T07:26:50;486.60;2380.80
66827;DHT22;53727;45.242;19.796;2022-09-12T07:29:16;486.60;2380.80
66827;DHT22;53727;45.242;19.796;2022-09-12T07:31:42;486.80;2380.80
66827;DHT22;53727;45.242;19.796;2022-09-12T07:34:08;486.90;2380.80
66827;DHT22;53727;45.242;19.796;2022-09-12T07:36:34;487.20;2380.80
66827;DHT22;53727;45.242;19.796;2022-09-12T07:39:00;486.90;2380.80
66827;DHT22;53727;45.242;19.796;2022-09-12T07:41:28;486.80;2380.80
66827;DHT22;53727;45.242;19.796;2022-09-12T07:43:55;486.70;2380.80
66827;DHT22;53727;45.242;19.796;2022-09-12T07:46:22;486.90;2380.80
66827;DHT22;53727;45.242;19.796;2022-09-12T07:48:50;487.00;2380.80
66827;DHT22;53727;45.242;19.796;2022-09-12T07:51:16;487.20;2380.80
66827;DHT22;53727;45.242;19.796;2022-09-12T07:53:43;512.10;2380.80
66827;DHT22;53727;45.242;19.796;2022-09-12T07:56:10;512.00;2380.80
66827;DHT22;53727;45.242;19.796;2022-09-12T07:58:38;487.30;2380.80
66827;DHT22;53727;45.242;19.796;2022-09-12T08:03:38;512.20;2380.80
66827;DHT22;53727;45.242;19.796;2022-09-12T08:06:08;512.20;2380.80
66827;DHT22;53727;45.242;19.796;2022-09-12T08:08:35;512.10;2380.80
66827;DHT22;53727;45.242;19.796;2022-09-12T08:11:03;512.50;2380.80
66827;DHT22;53727;45.242;19.796;2022-09-12T08:13:31;512.60;2380.80
66827;DHT22;53727;45.242;19.796;2022-09-12T08:16:01;512.90;2380.80
66827;DHT22;53727;45.242;19.796;2022-09-12T08:18:28;512.50;2380.80
66827;DHT22;53727;45.242;19.796;2022-09-12T08:21:01;512.80;2380.80
66827;DHT22;53727;45.242;19.796;2022-09-12T08:23:28;512.80;2380.80
66827;DHT22;53727;45.242;19.796;2022-09-12T08:25:58;512.90;2380.80
66827;DHT22;53727;45.242;19.796;2022-09-12T08:28:26;537.60;2406.40
66827;DHT22;53727;45.242;19.796;2022-09-12T08:30:52;512.90;2380.80
66827;DHT22;53727;45.242;19.796;2022-09-12T08:33:19;512.80;2380.80
66827;DHT22;53727;45.242;19.796;2022-09-12T08:35:45;512.80;2380.80
66827;DHT22;53727;45.242;19.796;2022-09-12T08:38:11;512.80;2380.80
66827;DHT22;53727;45.242;19.796;2022-09-12T08:40:49;512.80;2380.80
66827;DHT22;53727;45.242;19.796;2022-09-12T08:43:27;512.90;2380.80
66827;DHT22;53727;45.242;19.796;2022-09-12T08:46:09;512.80;2380.80
66827;DHT22;53727;45.242;19.796;2022-09-12T08:48:37;512.90;2380.80
66827;DHT22;53727;45.242;19.796;2022-09-12T08:51:04;537.70;2406.40
66827;DHT22;53727;45.242;19.796;2022-09-12T08:53:30;537.70;2406.40
66827;DHT22;53727;45.242;19.796;2022-09-12T08:56:01;512.90;2380.80
66827;DHT22;53727;45.242;19.796;2022-09-12T08:58:28;537.60;2406.40
66827;DHT22;53727;45.242;19.796;2022-09-12T09:01:09;537.60;2406.40
66827;DHT22;53727;45.242;19.796;2022-09-12T09:04:15;537.70;2406.40
66827;DHT22;53727;45.242;19.796;2022-09-12T09:09:38;537.80;2406.40
66827;DHT22;53727;45.242;19.796;2022-09-12T09:12:19;537.70;2406.40
66827;DHT22;53727;45.242;19.796;2022-09-12T09:14:56;538.10;2406.40
66827;DHT22;53727;45.242;19.796;2022-09-12T09:17:40;538.30;2406.40
66827;DHT22;53727;45.242;19.796;2022-09-12T09:33:19;563.50;2432.00
66827;DHT22;53727;45.242;19.796;2022-09-12T09:43:25;563.30;2432.00
66827;DHT22;53727;45.242;19.796;2022-09-12T09:45:56;563.30;2432.00
66827;DHT22;53727;45.242;19.796;2022-09-12T14:33:50;614.70;1817.60
66827;DHT22;53727;45.242;19.796;2022-09-12T14:36:29;614.40;1843.20
66827;DHT22;53727;45.242;19.796;2022-09-12T15:32:05;691.70;1689.60
66827;DHT22;53727;45.242;19.796;2022-09-12T15:39:23;717.40;1612.80
66827;DHT22;53727;45.242;19.796;2022-09-12T15:41:49;692.10;1638.40
66827;DHT22;53727;45.242;19.796;2022-09-12T15:44:15;717.00;1638.40
66827;DHT22;53727;45.242;19.796;2022-09-12T15:49:06;640.90;1740.80
66827;DHT22;53727;45.242;19.796;2022-09-12T15:51:32;640.70;1766.40
66827;DHT22;53727;45.242;19.796;2022-09-12T15:53:59;692.00;1664.00
66827;DHT22;53727;45.242;19.796;2022-09-12T15:56:26;717.00;1664.00
66827;DHT22;53727;45.242;19.796;2022-09-12T15:58:52;768.10;1510.40
66827;DHT22;53727;45.242;19.796;2022-09-12T16:03:47;819.70;1382.40
66827;DHT22;53727;45.242;19.796;2022-09-12T16:06:13;819.50;1382.40
66827;DHT22;53727;45.242;19.796;2022-09-12T16:08:40;819.30;1382.40
66827;DHT22;53727;45.242;19.796;2022-09-12T16:11:35;819.50;1382.40
66827;DHT22;53727;45.242;19.796;2022-09-12T16:14:03;794.20;1382.40
66827;DHT22;53727;45.242;19.796;2022-09-12T16:18:55;716.80;1587.20
66827;DHT22;53727;45.242;19.796;2022-09-12T16:23:48;640.70;1740.80
66827;DHT22;53727;45.242;19.796;2022-09-12T16:26:14;615.30;1792.00
66827;DHT22;53727;45.242;19.796;2022-09-12T16:28:40;614.90;1843.20
66827;DHT22;53727;45.242;19.796;2022-09-12T16:31:07;614.90;1843.20
66827;DHT22;53727;45.242;19.796;2022-09-12T16:33:36;614.60;1868.80
66827;DHT22;53727;45.242;19.796;2022-09-12T16:38:29;614.50;1894.40
66827;DHT22;53727;45.242;19.796;2022-09-12T16:41:05;589.60;1920.00
66827;DHT22;53727;45.242;19.796;2022-09-12T16:43:32;589.40;1945.60
66827;DHT22;53727;45.242;19.796;2022-09-12T16:46:06;589.30;1996.80
66827;DHT22;53727;45.242;19.796;2022-09-12T16:48:32;589.20;1996.80
66827;DHT22;53727;45.242;19.796;2022-09-12T19:39:50;512.40;2380.80
66827;DHT22;53727;45.242;19.796;2022-09-12T19:42:15;512.10;2380.80
66827;DHT22;53727;45.242;19.796;2022-09-12T19:44:43;512.10;2380.80
66827;DHT22;53727;45.242;19.796;2022-09-12T19:47:13;512.00;2380.80
66827;DHT22;53727;45.242;19.796;2022-09-12T19:49:39;487.30;2380.80
66827;DHT22;53727;45.242;19.796;2022-09-12T19:52:04;512.00;2380.80
66827;DHT22;53727;45.242;19.796;2022-09-12T19:54:30;487.20;2380.80
66827;DHT22;53727;45.242;19.796;2022-09-12T19:56:56;487.20;2380.80
66827;DHT22;53727;45.242;19.796;2022-09-12T20:01:47;487.30;2380.80
66827;DHT22;53727;45.242;19.796;2022-09-12T20:04:13;487.10;2380.80
66827;DHT22;53727;45.242;19.796;2022-09-12T20:06:39;487.00;2380.80
66827;DHT22;53727;45.242;19.796;2022-09-12T20:09:04;487.00;2380.80
66827;DHT22;53727;45.242;19.796;2022-09-12T20:11:30;487.00;2380.80
66827;DHT22;53727;45.242;19.796;2022-09-12T20:13:56;487.00;2380.80
66827;DHT22;53727;45.242;19.796;2022-09-12T20:16:23;486.90;2380.80
66827;DHT22;53727;45.242;19.796;2022-09-12T20:18:55;486.90;2380.80
66827;DHT22;53727;45.242;19.796;2022-09-12T20:21:23;486.90;2380.80
66827;DHT22;53727;45.242;19.796;2022-09-12T20:23:59;486.90;2380.80
66827;DHT22;53727;45.242;19.796;2022-09-12T20:26:25;486.90;2380.80
66827;DHT22;53727;45.242;19.796;2022-09-12T20:28:51;486.90;2380.80
66827;DHT22;53727;45.242;19.796;2022-09-12T20:31:17;486.90;2380.80
66827;DHT22;53727;45.242;19.796;2022-09-12T20:33:43;486.80;2380.80
66827;DHT22;53727;45.242;19.796;2022-09-12T20:36:14;486.80;2380.80
66827;DHT22;53727;45.242;19.796;2022-09-12T20:38:41;486.80;2380.80
66827;DHT22;53727;45.242;19.796;2022-09-12T20:41:10;486.60;2380.80
66827;DHT22;53727;45.242;19.796;2022-09-12T20:43:36;486.50;2380.80
66827;DHT22;53727;45.242;19.796;2022-09-12T21:15:23;486.50;2380.80
66827;DHT22;53727;45.242;19.796;2022-09-12T21:17:49;461.60;2380.80
66827;DHT22;53727;45.242;19.796;2022-09-12T21:20:16;461.50;2380.80
66827;DHT22;53727;45.242;19.796;2022-09-12T21:22:41;461.40;2380.80
66827;DHT22;53727;45.242;19.796;2022-09-12T23:00:47;461.10;2380.80
66827;DHT22;53727;45.242;19.796;2022-09-12T23:03:16;460.80;2380.80
66827;DHT22;53727;45.242;19.796;2022-09-12T23:05:44;436.10;2355.20
66827;DHT22;53727;45.242;19.796;2022-09-12T23:08:10;436.10;2355.20
66827;DHT22;53727;45.242;19.796;2022-09-12T23:10:36;436.10;2355.20
66827;DHT22;53727;45.242;19.796;2022-09-12T23:13:03;436.10;2355.20
66827;DHT22;53727;45.242;19.796;2022-09-12T23:15:29;436.10;2355.20
66827;DHT22;53727;45.242;19.796;2022-09-12T23:17:56;436.00;2355.20
66827;DHT22;53727;45.242;19.796;2022-09-12T23:56:56;436.00;2355.20
66827;DHT22;53727;45.242;19.796;2022-09-12T23:59:22;435.80;2355.20
